Ponderay, Idaho
Current Conditions -  °F | °C
As of 1:35 PM on Friday 19 Dec 2014 (Local Time) from KSZT Reporting Station
Moderate Rain Moderate Rain  
Wind Chill: 37°   Ceiling: 1700
Heat Index: 37°   Visibility: 10mi
Dew Point: 37°   Wind: 3mph
Humidity: 100%   Direction: 230°SW
Pressure: 29.9"   Gusts: NA
Location:  48.31°N, 116.53°W
Report Text: KSZT 192135Z AUTO 23003KT 10SM RA OVC017 03/03 A2990 RMK AO2
Loading
Personal Weather Stations






























Interactive Weather Map New forecast layout! Learn more

10-Day Weather Forecast

Advertisements
Track Severe Weather on mobile